Time;durP1;ratioP1;P1;durP2;ratioP2;P2;SDS_P1;SDS_P2;PMS_P1;PMS_P2;Temp;Humidity;BMP_temperature;BMP_pressure;BME280_temperature;BME280_humidity;BME280_pressure;Samples;Min_cycle;Max_cycle;Signal;HPM_P1;HPM_P2
2021/06/02 00:01:55;;;;;;;2.80;2.60;;;;;;;8.56;100.00;100354.77;1719375;83;20956;-35
2021/06/02 00:04:26;;;;;;;3.20;2.98;;;;;;;8.58;100.00;100343.13;1719426;83;21011;-35
2021/06/02 00:06:58;;;;;;;5.12;3.47;;;;;;;8.58;100.00;100347.88;1719393;83;21137;-35
2021/06/02 00:09:26;;;;;;;3.15;2.92;;;;;;;8.60;100.00;100346.58;1719463;83;21019;-35
2021/06/02 00:11:58;;;;;;;4.60;3.27;;;;;;;8.62;100.00;100346.95;1719374;82;20956;-35
2021/06/02 00:14:26;;;;;;;3.25;3.00;;;;;;;8.62;100.00;100345.66;1719385;83;20972;-36
2021/06/02 00:16:54;;;;;;;3.42;3.10;;;;;;;8.65;100.00;100340.05;1719396;83;21003;-36
2021/06/02 00:19:23;;;;;;;3.87;3.55;;;;;;;8.63;100.00;100342.21;1713936;83;21035;-36
2021/06/02 00:21:50;;;;;;;4.60;3.22;;;;;;;8.65;100.00;100349.08;1705872;84;21020;-37
2021/06/02 00:24:18;;;;;;;4.37;3.20;;;;;;;8.66;100.00;100347.78;1705861;84;20980;-36
2021/06/02 00:26:45;;;;;;;6.00;3.35;;;;;;;8.68;100.00;100351.62;1705845;84;20897;-36
2021/06/02 00:29:12;;;;;;;5.47;2.92;;;;;;;8.68;100.00;100342.16;1705978;84;21043;-35
2021/06/02 00:31:44;;;;;;;3.37;3.17;;;;;;;8.69;100.00;100342.58;1705984;84;21534;-37
2021/06/02 00:34:10;;;;;;;4.87;4.05;;;;;;;8.69;100.00;100340.42;1705876;84;21032;-36
2021/06/02 00:36:42;;;;;;;8.78;3.60;;;;;;;8.71;100.00;100345.13;1705893;84;20968;-36
2021/06/02 00:39:09;;;;;;;4.70;4.20;;;;;;;8.71;100.00;100347.70;1705915;84;21052;-36
2021/06/02 00:41:37;;;;;;;7.35;4.17;;;;;;;8.73;100.00;100353.28;1705961;84;20985;-36
2021/06/02 00:44:08;;;;;;;5.03;3.37;;;;;;;8.73;100.00;100354.56;1705865;84;21193;-37
2021/06/02 00:46:37;;;;;;;5.45;4.03;;;;;;;8.75;100.00;100336.50;1705864;84;20932;-36
2021/06/02 00:49:10;;;;;;;7.25;4.30;;;;;;;8.76;100.00;100348.53;1706060;84;20976;-36
2021/06/02 00:51:37;;;;;;;8.88;3.98;;;;;;;8.77;100.00;100347.66;1705923;84;21106;-37
2021/06/02 00:54:05;;;;;;;5.45;3.60;;;;;;;8.76;100.00;100345.95;1705923;84;21003;-37
2021/06/02 00:56:43;;;;;;;6.12;4.37;;;;;;;8.79;100.00;100346.33;1705933;84;21813;-36
2021/06/02 00:59:10;;;;;;;5.58;4.28;;;;;;;8.77;100.00;100352.81;1705848;84;20922;-36
2021/06/02 01:01:36;;;;;;;5.03;3.90;;;;;;;8.78;100.00;100355.81;1705964;84;20984;-37
2021/06/02 01:04:04;;;;;;;6.60;4.50;;;;;;;8.79;100.00;100357.52;1705942;84;20937;-36
2021/06/02 01:06:35;;;;;;;5.12;4.33;;;;;;;8.79;100.00;100354.06;1705984;84;20952;-36
2021/06/02 01:09:05;;;;;;;5.50;4.17;;;;;;;8.79;100.00;100360.09;1705841;84;20958;-37
2021/06/02 01:11:33;;;;;;;5.90;4.40;;;;;;;8.79;100.00;100362.68;1705854;84;20944;-36
2021/06/02 01:14:03;;;;;;;5.37;4.30;;;;;;;8.80;100.00;100367.39;1705828;84;20967;-37
2021/06/02 08:19:44;;;;;;;13.15;10.25;;;;;;;10.27;100.00;100388.86;1841470;76;21025;-39
2021/06/02 08:22:14;;;;;;;11.80;9.88;;;;;;;10.35;100.00;100393.02;1839379;76;20993;-38
2021/06/02 08:24:41;;;;;;;11.90;8.48;;;;;;;10.44;100.00;100396.34;1795404;77;20993;-39
2021/06/02 08:27:13;;;;;;;11.33;7.72;;;;;;;10.51;100.00;100400.54;1794465;78;20958;-39
2021/06/02 08:29:40;;;;;;;11.95;7.83;;;;;;;10.56;100.00;100390.94;1817367;78;20982;-38
2021/06/02 08:32:08;;;;;;;9.05;6.70;;;;;;;10.66;100.00;100385.57;1824435;77;21027;-39
2021/06/02 08:34:34;;;;;;;6.87;5.62;;;;;;;10.69;100.00;100388.09;1824747;77;21028;-38
2021/06/02 08:37:04;;;;;;;8.98;5.80;;;;;;;10.74;100.00;100394.06;1822916;77;20981;-39
2021/06/02 08:39:31;;;;;;;8.78;5.37;;;;;;;10.81;100.00;100396.93;1823169;78;20899;-39
2021/06/02 08:41:59;;;;;;;11.20;4.53;;;;;;;10.83;100.00;100393.00;1824772;78;21013;-38
2021/06/02 08:44:25;;;;;;;5.08;4.50;;;;;;;10.86;100.00;100398.97;1819367;77;20930;-38
2021/06/02 08:46:53;;;;;;;6.28;4.53;;;;;;;10.89;100.00;100396.78;1824336;78;21056;-39
2021/06/02 08:49:21;;;;;;;7.47;4.20;;;;;;;10.95;100.00;100398.36;1824527;78;20945;-38
2021/06/02 08:51:48;;;;;;;4.28;3.77;;;;;;;11.00;100.00;100395.27;1824824;78;20902;-39
2021/06/02 08:54:15;;;;;;;6.20;4.47;;;;;;;11.00;100.00;100399.98;1771261;78;21601;-39
2021/06/02 08:56:44;;;;;;;4.58;4.15;;;;;;;11.01;100.00;100400.39;1770940;78;21519;-39
2021/06/02 08:59:12;;;;;;;9.53;4.50;;;;;;;11.03;100.00;100401.20;1825571;78;21184;-38
2021/06/02 09:01:40;;;;;;;4.95;4.22;;;;;;;11.04;100.00;100402.08;1820189;78;20911;-40
2021/06/02 09:04:09;;;;;;;4.78;4.20;;;;;;;11.05;100.00;100402.48;1813424;78;20979;-38
2021/06/02 09:06:41;;;;;;;4.75;4.33;;;;;;;11.09;100.00;100408.00;1823774;78;20939;-37
2021/06/02 09:09:08;;;;;;;4.50;4.20;;;;;;;11.14;100.00;100412.64;1825532;77;21113;-38
2021/06/02 09:11:43;;;;;;;5.83;5.22;;;;;;;11.17;100.00;100419.05;1796202;78;21145;-39
2021/06/02 09:14:24;;;;;;;6.80;5.50;;;;;;;11.18;100.00;100415.56;1820346;78;20938;-40
2021/06/02 09:16:59;;;;;;;6.00;5.42;;;;;;;11.24;100.00;100420.20;1758443;79;21022;-37
2021/06/02 09:19:36;;;;;;;6.05;5.00;;;;;;;11.25;100.00;100418.05;1764954;80;21513;-38
2021/06/02 09:22:07;;;;;;;11.38;5.05;;;;;;;11.29;100.00;100415.34;1798053;78;20883;-39
2021/06/02 09:24:56;;;;;;;6.75;5.00;;;;;;;11.36;100.00;100415.59;1797309;78;21115;-40
2021/06/02 09:27:50;;;;;;;9.53;5.55;;;;;;;11.40;100.00;100418.98;1800920;78;21646;-39
2021/06/02 09:30:20;;;;;;;6.53;5.22;;;;;;;11.50;100.00;100420.93;1809908;78;21080;-39
2021/06/02 09:49:29;;;;;;;5.55;4.75;;;;;;;11.71;100.00;100433.83;1798118;77;25707;-40
2021/06/02 09:51:57;;;;;;;7.03;3.90;;;;;;;11.63;100.00;100428.84;1756952;80;20966;-39
2021/06/02 09:54:24;;;;;;;6.12;3.60;;;;;;;11.64;100.00;100440.05;1769763;80;21218;-40
2021/06/02 09:56:51;;;;;;;5.50;3.30;;;;;;;11.65;100.00;100430.09;1754060;80;21031;-37
2021/06/02 09:59:19;;;;;;;5.60;4.47;;;;;;;11.68;100.00;100436.95;1744661;81;21437;-39
2021/06/02 10:02:00;;;;;;;5.75;2.65;;;;;;;11.68;100.00;100437.80;1747246;81;20998;-38
2021/06/02 10:04:39;;;;;;;3.25;2.95;;;;;;;11.70;100.00;100439.91;1693883;84;21143;-38
2021/06/02 10:07:19;;;;;;;4.80;2.52;;;;;;;11.78;100.00;100440.59;1718720;82;20948;-39
2021/06/02 10:09:47;;;;;;;3.42;3.12;;;;;;;11.75;100.00;100435.48;1683067;84;21508;-39
2021/06/02 10:12:14;;;;;;;3.35;2.77;;;;;;;11.73;100.00;100442.88;1747223;81;21042;-38
2021/06/02 10:14:45;;;;;;;6.80;2.87;;;;;;;11.74;100.00;100456.26;1690003;83;21528;-39
2021/06/02 10:17:31;;;;;;;2.52;2.33;;;;;;;11.74;100.00;100451.07;1715694;82;20970;-38
2021/06/02 10:19:58;;;;;;;;;;;;;;;11.73;100.00;100453.25;1766403;80;21091;-39
2021/06/02 10:22:29;;;;;;;1.82;1.65;;;;;;;11.66;100.00;100451.24;1724275;81;20115;-38
2021/06/02 10:25:00;;;;;;;2.00;1.90;;;;;;;11.63;100.00;100443.11;1759204;80;21557;-39
2021/06/02 10:27:28;;;;;;;2.95;1.95;;;;;;;11.61;100.00;100454.39;1696468;84;21079;-38
2021/06/02 10:29:55;;;;;;;3.00;1.82;;;;;;;11.59;100.00;100462.65;1722397;82;21115;-38
2021/06/02 10:32:22;;;;;;;2.92;2.25;;;;;;;11.60;100.00;100462.59;1754597;80;21107;-38
2021/06/02 10:34:52;;;;;;;4.80;2.30;;;;;;;11.60;100.00;100466.95;1754962;80;20900;-39
2021/06/02 10:37:19;;;;;;;2.80;2.60;;;;;;;11.59;100.00;100463.95;1741634;81;21004;-38
2021/06/02 10:40:03;;;;;;;4.62;3.50;;;;;;;11.61;100.00;100466.89;1747200;81;21051;-39
2021/06/02 10:42:45;;;;;;;3.73;2.90;;;;;;;11.62;100.00;100471.65;1744916;80;21547;-39
2021/06/02 10:45:21;;;;;;;3.20;2.50;;;;;;;11.66;100.00;100464.20;1748058;80;21600;-37
2021/06/02 10:47:55;;;;;;;4.37;2.75;;;;;;;11.66;100.00;100465.96;1741891;80;21064;-38
2021/06/02 10:50:43;;;;;;;3.15;2.85;;;;;;;11.67;100.00;100471.09;1718057;82;20974;-37
2021/06/02 10:53:23;;;;;;;3.52;3.27;;;;;;;11.71;100.00;100478.38;1698850;82;21761;-38
2021/06/02 10:55:58;;;;;;;2.47;2.37;;;;;;;11.72;100.00;100475.73;1717949;82;20992;-38
2021/06/02 10:58:28;;;;;;;3.15;2.22;;;;;;;11.76;100.00;100477.39;1730710;81;21149;-37
2021/06/02 11:01:10;;;;;;;6.03;2.95;;;;;;;11.80;100.00;100479.45;1741062;82;21011;-39
2021/06/02 11:03:39;;;;;;;4.97;2.92;;;;;;;11.83;100.00;100481.13;1717225;82;21607;-39
2021/06/02 11:06:21;;;;;;;2.77;2.52;;;;;;;11.81;100.00;100483.74;1725187;81;20983;-37
2021/06/02 11:08:54;;;;;;;2.37;2.22;;;;;;;11.81;100.00;100484.20;1735461;81;20928;-37
2021/06/02 11:11:35;;;;;;;4.12;2.90;;;;;;;11.80;100.00;100482.04;1741284;81;22220;-40
2021/06/02 11:14:20;;;;;;;3.77;2.70;;;;;;;11.79;100.00;100488.98;1722762;81;21001;-39
2021/06/02 11:16:58;;;;;;;3.58;2.90;;;;;;;11.81;100.00;100481.15;1733563;81;20912;-40
2021/06/02 11:19:33;;;;;;;4.90;2.95;;;;;;;11.83;100.00;100487.16;1737968;82;21516;-38
2021/06/02 11:22:01;;;;;;;5.55;3.52;;;;;;;11.83;100.00;100488.45;1729452;82;21129;-39
2021/06/02 11:24:41;;;;;;;3.37;3.17;;;;;;;11.82;100.00;100488.50;1722444;82;21019;-38
2021/06/02 11:27:17;;;;;;;3.87;2.83;;;;;;;11.82;100.00;100487.20;1733168;82;21055;-39
2021/06/02 11:29:54;;;;;;;5.80;3.20;;;;;;;11.84;100.00;100488.02;1733820;82;21030;-39
2021/06/02 11:32:29;;;;;;;5.47;3.65;;;;;;;11.87;100.00;100492.70;1715784;82;21493;-39
2021/06/02 11:35:00;;;;;;;4.87;3.47;;;;;;;11.88;100.00;100495.70;1728419;81;21016;-39
2021/06/02 11:37:30;;;;;;;7.97;3.75;;;;;;;11.89;100.00;100488.33;1728346;81;21115;-39
2021/06/02 11:40:10;;;;;;;4.22;3.83;;;;;;;11.96;100.00;100496.80;1718006;82;20947;-39
2021/06/02 11:42:44;;;;;;;6.80;4.60;;;;;;;12.00;100.00;100497.16;1726043;82;20964;-39
2021/06/02 11:45:17;;;;;;;7.95;4.60;;;;;;;12.05;100.00;100500.52;1733734;81;21513;-40
2021/06/02 11:47:50;;;;;;;11.22;5.28;;;;;;;12.12;100.00;100493.88;1737534;81;20983;-38
2021/06/02 11:50:22;;;;;;;5.17;4.75;;;;;;;12.19;100.00;100495.42;1716834;82;21128;-39
2021/06/02 11:53:01;;;;;;;6.33;5.10;;;;;;;12.30;100.00;100487.38;1720100;82;20978;-39
2021/06/02 11:55:30;;;;;;;6.33;5.03;;;;;;;12.36;100.00;100494.57;1715824;82;21069;-41
2021/06/02 11:57:56;;;;;;;8.23;5.22;;;;;;;12.43;100.00;100493.98;1734367;82;20963;-39
2021/06/02 12:00:28;;;;;;;7.15;4.78;;;;;;;12.48;100.00;100495.13;1733235;82;21000;-38
2021/06/02 12:03:02;;;;;;;5.05;4.55;;;;;;;12.51;100.00;100492.48;1721438;82;21150;-38
2021/06/02 12:05:38;;;;;;;13.62;5.70;;;;;;;12.54;100.00;100498.89;1731687;82;21019;-38
2021/06/02 12:08:08;;;;;;;6.15;5.50;;;;;;;12.54;100.00;100500.19;1720449;82;21515;-39
2021/06/02 12:10:51;;;;;;;5.20;4.70;;;;;;;12.59;100.00;100495.73;1722493;81;21512;-39
2021/06/02 12:13:24;;;;;;;8.58;5.72;;;;;;;12.69;100.00;100490.28;1716324;82;21019;-39
2021/06/02 12:15:58;;;;;;;9.27;5.47;;;;;;;12.77;100.00;100485.75;1726193;81;21180;-38
2021/06/02 12:18:46;;;;;;;6.40;4.87;;;;;;;12.77;100.00;100485.75;1735482;81;21185;-39
2021/06/02 12:21:26;;;;;;;11.48;5.55;;;;;;;12.85;100.00;100485.52;1723128;82;21010;-38
2021/06/02 12:24:06;;;;;;;8.65;4.90;;;;;;;12.88;100.00;100488.03;1726014;82;20991;-39
2021/06/02 12:26:42;;;;;;;12.78;5.35;;;;;;;12.89;100.00;100488.00;1727258;81;21576;-39
2021/06/02 12:29:13;;;;;;;14.50;5.33;;;;;;;12.94;100.00;100487.87;1721790;82;20920;-39
2021/06/02 12:31:49;;;;;;;14.70;4.75;;;;;;;12.99;100.00;100479.50;1734161;81;20944;-39
2021/06/02 12:34:23;;;;;;;5.37;4.87;;;;;;;13.08;100.00;100484.43;1725889;81;21969;-37
2021/06/02 12:36:53;;;;;;;9.63;5.25;;;;;;;13.08;100.00;100484.43;1738209;81;21643;-39
2021/06/02 12:39:24;;;;;;;7.08;5.30;;;;;;;13.17;100.00;100491.11;1724782;82;20992;-38
2021/06/02 12:41:52;;;;;;;7.60;5.25;;;;;;;13.21;100.00;100485.39;1691345;84;21102;-38
2021/06/02 12:44:27;;;;;;;12.37;5.85;;;;;;;13.25;100.00;100492.63;1664675;85;21125;-38
2021/06/02 12:47:05;;;;;;;8.23;5.90;;;;;;;13.28;100.00;100490.81;1719637;82;21430;-38
2021/06/02 12:49:32;;;;;;;6.35;5.30;;;;;;;13.30;100.00;100490.77;1737754;82;21665;-39
2021/06/02 12:52:00;;;;;;;11.20;5.15;;;;;;;13.35;100.00;100491.48;1724660;82;21014;-39
2021/06/02 12:54:30;;;;;;;17.42;7.00;;;;;;;13.39;100.00;100500.89;1733437;82;21156;-38
2021/06/02 12:56:58;;;;;;;10.75;5.10;;;;;;;13.42;100.00;100491.70;1717653;82;20939;-39
2021/06/02 12:59:33;;;;;;;13.20;5.37;;;;;;;13.47;100.00;100495.04;1718137;82;21582;-38
2021/06/02 13:02:00;;;;;;;13.78;5.17;;;;;;;13.52;100.00;100500.58;1732721;81;21505;-39
2021/06/02 13:04:27;;;;;;;7.92;5.37;;;;;;;13.54;100.00;100502.68;1719211;82;21477;-39
2021/06/02 13:06:55;;;;;;;6.53;5.17;;;;;;;13.56;100.00;100502.19;1727670;81;22354;-38
2021/06/02 13:09:23;;;;;;;13.90;5.90;;;;;;;13.59;100.00;100500.78;1730321;82;21003;-38
2021/06/02 13:11:50;;;;;;;6.97;6.08;;;;;;;13.60;100.00;100502.02;1716933;82;21077;-37
2021/06/02 13:14:17;;;;;;;13.08;6.50;;;;;;;13.63;100.00;100505.83;1720284;82;21571;-39
2021/06/02 13:16:54;;;;;;;7.55;5.97;;;;;;;13.67;100.00;100514.40;1716396;82;21042;-39
2021/06/02 13:19:41;;;;;;;9.05;5.97;;;;;;;13.65;100.00;100511.86;1720704;82;21018;-39
2021/06/02 13:22:22;;;;;;;14.23;7.37;;;;;;;13.64;100.00;100514.50;1718041;82;20943;-39
2021/06/02 13:24:50;;;;;;;11.75;7.30;;;;;;;13.61;100.00;100518.49;1726545;82;20932;-38
2021/06/02 13:27:20;;;;;;;8.15;5.87;;;;;;;13.59;100.00;100511.19;1727011;81;21660;-38
2021/06/02 13:30:10;;;;;;;6.80;5.42;;;;;;;13.60;100.00;100513.73;1737513;82;20963;-38
2021/06/02 13:32:37;;;;;;;14.30;5.95;;;;;;;13.61;100.00;100517.20;1734619;81;21149;-37
2021/06/02 13:35:16;;;;;;;8.60;5.70;;;;;;;13.60;100.00;100517.63;1698995;82;20940;-39
2021/06/02 13:37:43;;;;;;;10.63;6.28;;;;;;;13.60;100.00;100516.33;1733654;81;20987;-39
2021/06/02 13:40:13;;;;;;;6.75;5.33;;;;;;;13.60;100.00;100516.79;1732418;81;21013;-38
2021/06/02 13:43:13;;;;;;;11.28;6.25;;;;;;;13.61;100.00;100515.43;1731448;81;21556;-39
2021/06/02 13:46:06;;;;;;;7.75;6.08;;;;;;;13.61;100.00;100522.39;1739652;81;21793;-38
2021/06/02 13:48:46;;;;;;;6.85;6.08;;;;;;;13.61;100.00;100523.70;1727642;82;20996;-38
2021/06/02 13:51:25;;;;;;;7.65;5.90;;;;;;;13.60;100.00;100525.89;1724819;82;21015;-38
2021/06/02 13:54:02;;;;;;;13.62;6.83;;;;;;;13.58;100.00;100522.02;1730252;82;21682;-39
2021/06/02 13:56:32;;;;;;;11.43;5.28;;;;;;;13.61;100.00;100522.39;1728597;81;20971;-38
2021/06/02 13:59:10;;;;;;;9.85;6.28;;;;;;;13.64;100.00;100526.20;1716518;82;21682;-37
2021/06/02 14:01:38;;;;;;;8.38;6.12;;;;;;;13.62;100.00;100528.00;1731972;82;20989;-38
2021/06/02 14:04:07;;;;;;;9.10;5.50;;;;;;;13.63;100.00;100525.80;1724158;82;21473;-37
2021/06/02 14:06:34;;;;;;;11.75;6.30;;;;;;;13.65;100.00;100525.30;1718123;82;20974;-39
2021/06/02 14:09:06;;;;;;;12.45;6.03;;;;;;;13.65;100.00;100524.87;1738542;81;21019;-38
2021/06/02 14:11:33;;;;;;;9.13;5.78;;;;;;;13.69;100.00;100529.97;1732373;82;21575;-38
2021/06/02 14:14:00;;;;;;;8.90;6.17;;;;;;;13.72;100.00;100533.31;1720501;82;21024;-39
2021/06/02 14:16:28;;;;;;;9.20;6.87;;;;;;;13.74;100.00;100530.68;1727822;82;20959;-38
2021/06/02 14:18:55;;;;;;;7.00;6.03;;;;;;;13.76;100.00;100534.08;1729552;82;20910;-37
2021/06/02 14:21:22;;;;;;;13.30;6.45;;;;;;;13.81;100.00;100528.75;1725064;81;21083;-38
2021/06/02 14:23:51;;;;;;;7.90;5.87;;;;;;;13.86;100.00;100532.89;1716297;82;20947;-39
2021/06/02 14:26:18;;;;;;;12.78;7.50;;;;;;;13.87;100.00;100531.98;1731451;81;20932;-39
2021/06/02 14:28:45;;;;;;;11.85;6.40;;;;;;;13.91;100.00;100534.06;1723764;82;20991;-39
2021/06/02 14:31:12;;;;;;;8.43;6.15;;;;;;;13.91;100.00;100536.22;1732330;81;20960;-40
2021/06/02 14:33:38;;;;;;;11.68;7.30;;;;;;;13.89;100.00;100528.92;1737893;82;21023;-38
2021/06/02 14:36:05;;;;;;;14.47;6.58;;;;;;;13.88;100.00;100537.59;1740324;81;21113;-39
2021/06/02 14:38:34;;;;;;;9.30;5.85;;;;;;;13.88;100.00;100540.66;1737482;82;21494;-39
2021/06/02 14:41:03;;;;;;;7.70;6.72;;;;;;;13.89;100.00;100539.76;1725089;82;21114;-39
2021/06/02 14:43:31;;;;;;;12.40;6.37;;;;;;;13.88;100.00;100543.27;1715046;82;20965;-38
2021/06/02 14:45:59;;;;;;;8.93;6.53;;;;;;;13.90;100.00;100544.06;1732610;82;21076;-38
2021/06/02 14:48:27;;;;;;;8.05;5.90;;;;;;;13.92;100.00;100540.97;1734523;81;20998;-39
2021/06/02 14:50:55;;;;;;;10.35;6.20;;;;;;;13.93;100.00;100538.77;1725172;82;20988;-38
2021/06/02 14:53:22;;;;;;;8.23;5.75;;;;;;;13.93;100.00;100538.33;1738357;82;21084;-39
2021/06/02 14:55:49;;;;;;;10.53;6.45;;;;;;;13.93;100.00;100543.97;1728760;81;20956;-38
2021/06/02 14:58:16;;;;;;;11.22;5.92;;;;;;;13.93;100.00;100545.27;1739691;82;20972;-39
2021/06/02 15:00:42;;;;;;;10.45;6.10;;;;;;;13.90;100.00;100544.93;1732332;82;21149;-39
2021/06/02 15:03:10;;;;;;;9.55;5.95;;;;;;;13.89;100.00;100551.47;1725720;82;21062;-38
2021/06/02 15:05:37;;;;;;;9.15;6.78;;;;;;;13.90;100.00;100551.88;1726336;82;21004;-39
2021/06/02 15:08:04;;;;;;;14.28;7.28;;;;;;;13.92;100.00;100553.54;1733941;81;21508;-39
2021/06/02 15:10:31;;;;;;;10.23;7.75;;;;;;;13.92;100.00;100556.58;1733480;81;21034;-39
2021/06/02 15:12:59;;;;;;;10.20;7.20;;;;;;;13.92;100.00;100552.67;1728618;81;20948;-38
2021/06/02 15:15:28;;;;;;;10.25;7.60;;;;;;;13.93;100.00;100551.77;1724636;82;20987;-39
2021/06/02 15:17:56;;;;;;;11.95;7.12;;;;;;;13.96;100.00;100551.67;1732055;82;20991;-38
2021/06/02 15:20:24;;;;;;;10.38;6.47;;;;;;;13.98;100.00;100556.84;1730784;81;21007;-38
2021/06/02 15:22:52;;;;;;;13.43;8.58;;;;;;;13.98;100.00;100552.47;1724010;81;20999;-38
2021/06/02 15:25:20;;;;;;;12.53;7.10;;;;;;;13.98;100.00;100549.03;1724668;81;21056;-38
2021/06/02 15:27:55;;;;;;;8.90;7.00;;;;;;;13.98;100.00;100555.55;1732415;82;20980;-38
2021/06/02 15:30:27;;;;;;;10.25;6.78;;;;;;;13.98;100.00;100556.84;1717895;82;21571;-37
2021/06/02 15:32:59;;;;;;;15.65;7.05;;;;;;;13.98;100.00;100552.47;1730176;81;20949;-36
2021/06/02 15:35:30;;;;;;;18.48;8.13;;;;;;;14.01;100.00;100551.54;1730890;82;21071;-39
2021/06/02 15:37:59;;;;;;;12.37;8.58;;;;;;;14.00;100.00;100550.67;1718449;82;21178;-39
2021/06/02 15:40:27;;;;;;;15.13;7.33;;;;;;;14.02;100.00;100562.35;1728448;82;20935;-38
2021/06/02 15:42:53;;;;;;;15.48;7.17;;;;;;;14.02;100.00;100562.35;1719934;82;21027;-36
2021/06/02 15:45:20;;;;;;;5.58;5.05;;;;;;;14.04;100.00;100563.15;1737161;81;20994;-38
2021/06/02 15:47:48;;;;;;;8.73;4.72;;;;;;;14.02;100.00;100556.71;1732529;81;20956;-38
2021/06/02 15:50:15;;;;;;;7.97;5.40;;;;;;;14.02;100.00;100569.72;1735222;81;21328;-39
2021/06/02 15:52:45;;;;;;;17.02;4.90;;;;;;;14.03;100.00;100571.86;1739985;82;21058;-39
2021/06/02 15:55:18;;;;;;;6.70;4.40;;;;;;;14.01;100.00;100567.98;1689090;84;21087;-38
2021/06/02 15:57:46;;;;;;;7.20;4.10;;;;;;;14.00;100.00;100574.09;1686936;84;21048;-39
2021/06/02 16:00:18;;;;;;;6.03;4.33;;;;;;;13.98;100.00;100575.89;1672121;84;21076;-38
2021/06/02 16:02:46;;;;;;;6.62;4.37;;;;;;;13.96;100.00;100576.39;1689304;84;21785;-38
2021/06/02 16:05:19;;;;;;;5.40;4.30;;;;;;;13.90;100.00;100575.29;1733467;81;20976;-38
2021/06/02 16:07:47;;;;;;;10.23;4.25;;;;;;;13.87;100.00;100576.69;1728114;82;22378;-39
2021/06/02 16:10:16;;;;;;;8.23;4.30;;;;;;;13.84;100.00;100576.78;1732730;82;20935;-39
2021/06/02 16:12:43;;;;;;;7.60;4.05;;;;;;;13.80;100.00;100578.61;1735029;82;20909;-38
2021/06/02 16:15:13;;;;;;;7.75;3.95;;;;;;;13.78;100.00;100577.81;1727776;82;21694;-38
2021/06/02 16:17:40;;;;;;;5.30;3.83;;;;;;;13.76;100.00;100578.31;1736102;82;21003;-38
2021/06/02 16:20:10;;;;;;;7.72;3.85;;;;;;;13.74;100.00;100571.83;1724143;82;21041;-38
2021/06/02 16:22:36;;;;;;;9.83;4.33;;;;;;;13.73;100.00;100588.34;1723131;82;20952;-37
2021/06/02 16:25:05;;;;;;;8.50;5.03;;;;;;;13.71;100.00;100585.40;1720405;82;20982;-37
2021/06/02 16:27:34;;;;;;;12.37;5.50;;;;;;;13.68;100.00;100581.12;1716027;82;21176;-38
2021/06/02 16:30:06;;;;;;;7.78;4.58;;;;;;;13.67;100.00;100582.49;1729911;82;21022;-38
2021/06/02 16:32:34;;;;;;;8.75;4.80;;;;;;;13.66;100.00;100579.02;1732138;81;20926;-37
2021/06/02 16:35:03;;;;;;;10.32;5.22;;;;;;;13.65;100.00;100582.52;1731895;82;20944;-37
2021/06/02 16:37:30;;;;;;;10.30;5.53;;;;;;;13.64;100.00;100579.09;1733852;82;21027;-39
2021/06/02 16:39:59;;;;;;;9.13;4.03;;;;;;;13.62;100.00;100574.81;1733696;82;21235;-39
2021/06/02 16:42:27;;;;;;;7.05;4.12;;;;;;;13.61;100.00;100575.71;1734744;82;21043;-38
2021/06/02 16:44:54;;;;;;;4.90;3.95;;;;;;;13.60;100.00;100581.81;1735552;82;21042;-37
2021/06/02 16:47:22;;;;;;;10.30;3.95;;;;;;;13.57;100.00;100576.23;1720107;82;21028;-38
2021/06/02 16:49:49;;;;;;;10.72;4.37;;;;;;;13.55;100.00;100570.70;1726262;82;20939;-38
2021/06/02 16:52:16;;;;;;;10.95;4.55;;;;;;;13.53;100.00;100570.73;1727811;81;21150;-37
2021/06/02 16:54:43;;;;;;;6.97;3.62;;;;;;;13.54;100.00;100566.39;1730590;81;20983;-38
2021/06/02 16:57:11;;;;;;;13.28;3.92;;;;;;;13.48;100.00;100565.65;1715830;82;20943;-38
2021/06/02 16:59:37;;;;;;;4.67;4.20;;;;;;;13.46;100.00;100558.81;1733438;81;20952;-39
2021/06/02 17:02:06;;;;;;;14.87;4.65;;;;;;;13.43;100.00;100555.84;1692549;82;21053;-39
2021/06/02 17:04:32;;;;;;;7.67;3.40;;;;;;;13.42;100.00;100559.77;1720750;82;21129;-38
2021/06/02 17:07:03;;;;;;;10.00;3.20;;;;;;;13.40;100.00;100554.59;1721395;82;20968;-38
2021/06/02 17:09:29;;;;;;;9.40;2.60;;;;;;;13.38;100.00;100553.79;1692130;82;21015;-38
2021/06/02 17:11:57;;;;;;;3.65;2.90;;;;;;;13.37;100.00;100555.98;1737909;82;20999;-37
2021/06/02 17:14:24;;;;;;;5.50;3.00;;;;;;;13.36;100.00;100554.28;1735567;81;20999;-39
2021/06/02 17:16:50;;;;;;;5.20;3.00;;;;;;;13.36;100.00;100546.48;1730979;81;21153;-38
2021/06/02 17:19:23;;;;;;;10.23;2.92;;;;;;;13.34;100.00;100543.08;1737417;81;21000;-39
2021/06/02 17:21:53;;;;;;;6.92;2.80;;;;;;;13.34;100.00;100548.28;1720015;82;20999;-39
2021/06/02 17:24:21;;;;;;;9.83;3.00;;;;;;;13.32;100.00;100544.41;1724737;81;20912;-38
2021/06/02 17:26:52;;;;;;;4.08;2.70;;;;;;;13.32;100.00;100547.01;1735325;82;21568;-38
2021/06/02 17:29:29;;;;;;;7.03;2.77;;;;;;;13.32;100.00;100548.77;1737765;82;21787;-39
2021/06/02 17:31:56;;;;;;;7.03;2.95;;;;;;;13.31;100.00;100545.30;1726758;81;21071;-38
2021/06/02 17:34:25;;;;;;;3.37;2.67;;;;;;;13.30;100.00;100537.57;1727358;82;21032;-39
2021/06/02 17:36:52;;;;;;;4.50;2.85;;;;;;;13.30;100.00;100540.16;1737245;82;20949;-39
2021/06/02 17:39:19;;;;;;;6.53;3.15;;;;;;;13.28;100.00;100534.16;1728895;81;20995;-38
2021/06/02 17:41:46;;;;;;;6.50;2.77;;;;;;;13.28;100.00;100539.36;1725211;82;21137;-38
2021/06/02 17:44:14;;;;;;;5.50;2.90;;;;;;;13.28;100.00;100535.00;1718415;82;20983;-38
2021/06/02 17:46:47;;;;;;;5.33;2.70;;;;;;;13.28;100.00;100540.66;1741000;82;21011;-38
2021/06/02 17:49:15;;;;;;;4.83;3.00;;;;;;;13.28;100.00;100538.89;1716721;82;20987;-38
2021/06/02 17:51:46;;;;;;;6.83;3.17;;;;;;;13.27;100.00;100541.09;1729393;81;20980;-39
2021/06/02 17:54:13;;;;;;;5.42;2.60;;;;;;;13.26;100.00;100538.52;1718854;82;21192;-38
2021/06/02 17:56:42;;;;;;;5.15;2.58;;;;;;;13.27;100.00;100537.66;1740627;82;21099;-38
2021/06/02 17:59:09;;;;;;;2.98;2.42;;;;;;;13.26;100.00;100544.59;1731220;81;20979;-39
2021/06/02 18:01:36;;;;;;;7.10;3.00;;;;;;;13.26;100.00;100547.62;1732765;82;20991;-39
2021/06/02 18:04:02;;;;;;;4.70;2.58;;;;;;;13.28;100.00;100543.27;1734462;82;21093;-39
2021/06/02 18:06:29;;;;;;;5.78;3.22;;;;;;;13.29;100.00;100543.66;1716611;82;21118;-38
2021/06/02 18:08:57;;;;;;;8.38;2.98;;;;;;;13.28;100.00;100544.56;1723132;82;20979;-39
2021/06/02 18:11:25;;;;;;;9.45;3.22;;;;;;;13.30;100.00;100546.66;1734713;82;20956;-39
2021/06/02 18:13:53;;;;;;;3.00;2.80;;;;;;;13.31;100.00;100544.47;1737189;82;20972;-44
2021/06/02 18:16:23;;;;;;;10.20;2.95;;;;;;;13.29;100.00;100548.40;1724501;82;20971;-40
2021/06/02 18:18:55;;;;;;;5.40;3.35;;;;;;;13.30;100.00;100544.06;1718638;82;20990;-39
2021/06/02 18:21:23;;;;;;;3.52;2.60;;;;;;;13.31;100.00;100547.91;1707474;82;21915;-39
2021/06/02 18:23:52;;;;;;;4.50;2.92;;;;;;;13.32;100.00;100551.38;1720295;81;21605;-38
2021/06/02 18:26:19;;;;;;;3.92;3.00;;;;;;;13.34;100.00;100554.78;1725516;82;20988;-38
2021/06/02 18:28:48;;;;;;;4.08;2.87;;;;;;;13.36;100.00;100552.52;1739347;82;20991;-39
2021/06/02 18:31:15;;;;;;;4.03;2.95;;;;;;;13.37;100.00;100558.13;1730098;82;21125;-37
2021/06/02 18:33:42;;;;;;;8.55;2.60;;;;;;;13.38;100.00;100555.09;1733129;82;21585;-39
2021/06/02 18:36:10;;;;;;;6.35;2.75;;;;;;;13.39;100.00;100555.49;1720684;82;21548;-39
2021/06/02 18:38:38;;;;;;;10.15;2.42;;;;;;;13.40;100.00;100555.06;1729369;82;21541;-38
2021/06/02 18:41:10;;;;;;;4.30;2.30;;;;;;;13.42;100.00;100551.97;1734561;81;21229;-38
2021/06/02 18:43:39;;;;;;;6.35;2.85;;;;;;;13.42;100.00;100556.70;1741134;82;21577;-38
2021/06/02 18:46:08;;;;;;;3.45;2.67;;;;;;;13.41;100.00;100551.56;1720099;82;20995;-38
2021/06/02 18:48:35;;;;;;;3.17;2.40;;;;;;;13.41;100.00;100547.20;1732905;81;21013;-38
2021/06/02 18:51:01;;;;;;;6.78;2.30;;;;;;;13.42;100.00;100550.20;1732391;82;20992;-39
2021/06/02 18:53:28;;;;;;;2.83;2.20;;;;;;;13.39;100.00;100546.39;1727284;82;21024;-38